Time;durP1;ratioP1;P1;durP2;ratioP2;P2;SDS_P1;SDS_P2;PMS_P1;PMS_P2;Temp;Humidity;BMP_temperature;BMP_pressure;BME280_temperature;BME280_humidity;BME280_pressure;Samples;Min_cycle;Max_cycle;Signal;HPM_P1;HPM_P2
2022/12/04 00:02:55;;;;;;;15.18;9.18;;;;;;;-144.32;100.00;68061.97;10478339;28;20082;-86
2022/12/04 00:07:56;;;;;;;15.27;8.68;;;;;;;-144.32;100.00;68061.97;10477076;28;20031;-81
2022/12/04 00:12:57;;;;;;;16.05;9.68;;;;;;;-144.32;100.00;68061.97;10498481;22;20037;-82
2022/12/04 00:17:58;;;;;;;18.77;10.10;;;;;;;-144.32;100.00;68061.97;10408199;28;20042;-86
2022/12/04 00:22:58;;;;;;;18.65;11.10;;;;;;;-144.32;100.00;68061.97;10379437;28;20489;-88
2022/12/04 00:27:59;;;;;;;17.05;9.73;;;;;;;-144.32;100.00;68061.97;10342575;28;20050;-87
2022/12/04 00:32:59;;;;;;;19.35;9.55;;;;;;;-144.32;100.00;68061.97;10364248;28;20045;-79
2022/12/04 00:38:02;;;;;;;18.27;9.95;;;;;;;-144.32;100.00;68061.97;10372754;28;20049;-84
2022/12/04 00:43:02;;;;;;;16.50;9.18;;;;;;;-144.32;100.00;68061.97;10387300;28;20023;-79
2022/12/04 00:48:06;;;;;;;14.57;9.10;;;;;;;-144.32;100.00;68061.97;10447592;22;20914;-79
2022/12/04 00:53:06;;;;;;;16.35;9.73;;;;;;;-144.32;100.00;68061.97;10487892;28;20048;-80
2022/12/04 00:58:08;;;;;;;19.13;9.82;;;;;;;-144.32;100.00;68061.97;10670447;22;20130;-79
2022/12/04 01:03:11;;;;;;;16.40;9.15;;;;;;;-144.32;100.00;68061.97;10531693;22;20044;-79
2022/12/04 01:08:16;;;;;;;15.20;8.38;;;;;;;-144.32;100.00;68061.97;10438146;28;20045;-86
2022/12/04 01:13:17;;;;;;;17.15;9.85;;;;;;;-144.32;100.00;68061.97;10435565;28;20042;-82
2022/12/04 01:18:19;;;;;;;16.13;9.20;;;;;;;-144.32;100.00;68061.97;11196922;22;20033;-82
2022/12/04 01:23:19;;;;;;;14.57;8.25;;;;;;;-144.32;100.00;68061.97;10463130;28;20021;-81
2022/12/04 01:28:21;;;;;;;17.30;9.57;;;;;;;-144.32;100.00;68061.97;10461748;28;20047;-81
2022/12/04 01:38:48;;;;;;;16.70;8.90;;;;;;;-144.32;100.00;68061.97;10833207;22;20402;-84
2022/12/04 01:49:36;;;;;;;13.82;8.35;;;;;;;-144.32;100.00;68061.97;10417793;28;20069;-85
2022/12/04 01:54:43;;;;;;;14.90;8.15;;;;;;;-144.32;100.00;68061.97;10736350;22;20094;-85
2022/12/04 01:59:56;;;;;;;13.15;8.23;;;;;;;-144.32;100.00;68061.97;10471458;28;20041;-85
2022/12/04 02:04:59;;;;;;;16.05;9.13;;;;;;;-144.32;100.00;68061.97;10468578;28;20064;-85
2022/12/04 02:10:05;;;;;;;;;;;;;;;-144.32;100.00;68061.97;10472154;28;20123;-83
2022/12/04 02:15:26;;;;;;;14.38;8.45;;;;;;;-144.32;100.00;68061.97;10454799;28;19925;-85
2022/12/04 02:20:30;;;;;;;13.55;8.20;;;;;;;-144.32;100.00;68061.97;10463589;28;20457;-90
2022/12/04 02:31:09;;;;;;;14.13;8.65;;;;;;;-144.32;100.00;68061.97;12036293;22;20033;-81
2022/12/04 02:36:17;;;;;;;13.30;8.55;;;;;;;-144.32;100.00;68061.97;10531227;28;20020;-78
2022/12/04 02:46:41;;;;;;;14.85;8.40;;;;;;;-144.32;100.00;68061.97;10653420;22;20056;-80
2022/12/04 02:57:22;;;;;;;14.45;8.18;;;;;;;-144.32;100.00;68061.97;10648436;22;20041;-80
2022/12/04 03:02:35;;;;;;;12.93;7.28;;;;;;;-144.32;100.00;68061.97;10500901;22;20037;-80
2022/12/04 03:07:45;;;;;;;13.52;8.27;;;;;;;-144.32;100.00;68061.97;10416779;28;20129;-86
2022/12/04 03:13:00;;;;;;;13.30;7.72;;;;;;;-144.32;100.00;68061.97;10409419;28;20508;-87
2022/12/04 03:23:34;;;;;;;11.83;7.87;;;;;;;-144.32;100.00;68061.97;10852276;22;20061;-79
2022/12/04 03:29:18;;;;;;;13.98;7.88;;;;;;;-144.32;100.00;68061.97;10463220;28;20045;-87
2022/12/04 03:34:32;;;;;;;13.30;7.47;;;;;;;-144.32;100.00;68061.97;10450985;28;20113;-85
2022/12/04 03:39:52;;;;;;;;;;;;;;;-144.32;100.00;68061.97;10477462;28;20040;-80
2022/12/04 03:50:02;;;;;;;12.57;7.78;;;;;;;-144.32;100.00;68061.97;11356406;22;20041;-80
2022/12/04 03:55:09;;;;;;;14.10;8.13;;;;;;;-144.32;100.00;68061.97;10469951;28;20088;-85
2022/12/04 04:00:19;;;;;;;11.32;7.30;;;;;;;-144.32;100.00;68061.97;10482737;28;20029;-83
2022/12/04 04:05:41;;;;;;;11.23;7.47;;;;;;;-144.32;100.00;68061.97;10471076;28;20045;-80
2022/12/04 04:10:42;;;;;;;12.15;7.40;;;;;;;-144.32;100.00;68061.97;10436225;28;20041;-83
2022/12/04 04:26:44;;;;;;;14.30;8.63;;;;;;;-144.32;100.00;68061.97;10453265;28;20029;-83
2022/12/04 04:31:55;;;;;;;13.48;8.18;;;;;;;-144.32;100.00;68061.97;10460759;28;20069;-79
2022/12/04 04:37:20;;;;;;;14.10;8.55;;;;;;;-144.32;100.00;68061.97;10455849;28;20021;-79
2022/12/04 04:42:32;;;;;;;11.75;7.47;;;;;;;-144.32;100.00;68061.97;10469562;28;20381;-80
2022/12/04 04:47:51;;;;;;;10.45;6.93;;;;;;;-144.32;100.00;68061.97;10459859;28;20144;-81
2022/12/04 04:52:58;;;;;;;13.13;7.80;;;;;;;-144.32;100.00;68061.97;10454597;28;20132;-86
2022/12/04 04:58:12;;;;;;;13.18;7.43;;;;;;;-144.32;100.00;68061.97;10442989;28;20046;-85
2022/12/04 05:03:13;;;;;;;11.43;7.65;;;;;;;-144.32;100.00;68061.97;11230203;22;20049;-88
2022/12/04 05:08:13;;;;;;;11.18;7.68;;;;;;;-144.32;100.00;68061.97;10774401;22;20038;-79
2022/12/04 05:13:15;;;;;;;11.15;6.82;;;;;;;-144.32;100.00;68061.97;10836758;23;20056;-79
2022/12/04 05:18:15;;;;;;;12.10;7.82;;;;;;;-144.32;100.00;68061.97;10369070;28;20043;-85
2022/12/04 05:23:16;;;;;;;11.95;7.70;;;;;;;-144.32;100.00;68061.97;11000596;22;20049;-82
2022/12/04 05:33:40;;;;;;;10.80;7.07;;;;;;;-144.32;100.00;68061.97;10661726;22;20131;-86
2022/12/04 05:38:41;;;;;;;11.52;7.35;;;;;;;-144.32;100.00;68061.97;10509828;28;20032;-80
2022/12/04 05:43:41;;;;;;;12.48;7.25;;;;;;;-144.32;100.00;68061.97;10514979;28;20046;-83
2022/12/04 05:48:42;;;;;;;10.95;7.28;;;;;;;-144.32;100.00;68061.97;10505678;28;20040;-85
2022/12/04 05:53:42;;;;;;;14.40;7.88;;;;;;;-144.32;100.00;68061.97;10480477;28;20045;-85
2022/12/04 05:58:46;;;;;;;11.35;7.13;;;;;;;-144.32;100.00;68061.97;10476677;28;20076;-84
2022/12/04 06:03:48;;;;;;;12.68;7.93;;;;;;;-144.32;100.00;68061.97;10485576;28;20453;-83
2022/12/04 06:08:50;;;;;;;12.73;7.82;;;;;;;-144.32;100.00;68061.97;10499704;28;20044;-90
2022/12/04 06:13:50;;;;;;;12.35;7.45;;;;;;;-144.32;100.00;68061.97;10508055;28;20037;-90
2022/12/04 06:18:54;;;;;;;13.18;8.38;;;;;;;-144.32;100.00;68061.97;10494598;28;20771;-84
2022/12/04 06:23:54;;;;;;;13.10;7.38;;;;;;;-144.32;100.00;68061.97;10484726;28;20032;-87
2022/12/04 06:28:57;;;;;;;11.75;7.50;;;;;;;-144.32;100.00;68061.97;11421154;22;20092;-79
2022/12/04 06:34:00;;;;;;;12.13;7.30;;;;;;;-144.32;100.00;68061.97;11469218;22;20336;-80
2022/12/04 06:44:04;;;;;;;11.77;7.72;;;;;;;-144.32;100.00;68061.97;10383141;28;20168;-85
2022/12/04 06:49:05;;;;;;;11.85;7.38;;;;;;;-144.32;100.00;68061.97;10381672;28;20038;-83
2022/12/04 06:54:06;;;;;;;12.85;7.32;;;;;;;-144.32;100.00;68061.97;10381456;28;20049;-85
2022/12/04 06:59:06;;;;;;;11.02;6.78;;;;;;;-144.32;100.00;68061.97;10392125;28;20674;-84
2022/12/04 07:04:07;;;;;;;11.60;7.35;;;;;;;-144.32;100.00;68061.97;10389031;28;20046;-83
2022/12/04 07:09:14;;;;;;;10.35;6.70;;;;;;;-144.32;100.00;68061.97;10404279;28;20101;-80
2022/12/04 07:14:15;;;;;;;10.32;6.97;;;;;;;-144.32;100.00;68061.97;10414837;28;20085;-83
2022/12/04 07:19:15;;;;;;;11.27;7.00;;;;;;;-144.32;100.00;68061.97;10419925;28;20030;-83
2022/12/04 07:24:16;;;;;;;12.27;7.53;;;;;;;-144.32;100.00;68061.97;10385929;28;20065;-84
2022/12/04 07:29:17;;;;;;;12.95;8.50;;;;;;;-144.32;100.00;68061.97;10371151;28;20472;-83
2022/12/04 07:34:17;;;;;;;13.57;8.85;;;;;;;-144.32;100.00;68061.97;10344967;28;20136;-82
2022/12/04 07:39:18;;;;;;;11.38;7.10;;;;;;;-144.32;100.00;68061.97;10398819;28;20038;-80
2022/12/04 07:44:18;;;;;;;12.82;7.93;;;;;;;-144.32;100.00;68061.97;10362248;28;20055;-81
2022/12/04 07:49:19;;;;;;;10.32;6.45;;;;;;;-144.32;100.00;68061.97;10353924;28;20081;-79
2022/12/04 07:54:19;;;;;;;11.38;6.80;;;;;;;-144.32;100.00;68061.97;10345576;28;20052;-79
2022/12/04 07:59:20;;;;;;;10.73;6.82;;;;;;;-144.32;100.00;68061.97;10351913;28;20473;-78
2022/12/04 08:04:20;;;;;;;10.35;6.78;;;;;;;-144.32;100.00;68061.97;10340532;28;20161;-78
2022/12/04 08:09:21;;;;;;;11.38;7.75;;;;;;;-144.32;100.00;68061.97;10346479;28;20394;-81
2022/12/04 08:14:21;;;;;;;10.75;6.50;;;;;;;-144.32;100.00;68061.97;10335905;28;20861;-80
2022/12/04 08:19:22;;;;;;;10.57;6.97;;;;;;;-144.32;100.00;68061.97;10353299;28;20061;-83
2022/12/04 08:24:23;;;;;;;11.40;7.70;;;;;;;-144.32;100.00;68061.97;10338272;28;20042;-82
2022/12/04 08:29:23;;;;;;;10.57;6.78;;;;;;;-144.32;100.00;68061.97;10351823;28;20042;-86
2022/12/04 08:34:26;;;;;;;9.90;6.53;;;;;;;-144.32;100.00;68061.97;10343022;28;20045;-82
2022/12/04 08:39:27;;;;;;;9.90;6.53;;;;;;;-144.32;100.00;68061.97;10368290;28;20057;-82
2022/12/04 08:44:28;;;;;;;10.45;6.82;;;;;;;-144.32;100.00;68061.97;10358597;28;20045;-85
2022/12/04 08:49:30;;;;;;;9.35;6.40;;;;;;;-144.32;100.00;68061.97;10380091;28;20076;-80
2022/12/04 08:54:30;;;;;;;10.10;6.63;;;;;;;-144.32;100.00;68061.97;10365682;28;20042;-79
2022/12/04 08:59:31;;;;;;;10.57;6.75;;;;;;;-144.32;100.00;68061.97;10355858;28;20042;-81
2022/12/04 09:04:33;;;;;;;10.55;6.63;;;;;;;-144.32;100.00;68061.97;10356240;28;20050;-82
2022/12/04 09:09:37;;;;;;;;;;;;;;;-144.32;100.00;68061.97;10354507;28;20050;-81
2022/12/04 09:14:38;;;;;;;10.15;6.22;;;;;;;-144.32;100.00;68061.97;10365505;28;19933;-78
2022/12/04 09:19:40;;;;;;;9.35;6.30;;;;;;;-144.32;100.00;68061.97;10392224;28;20046;-80
2022/12/04 09:24:43;;;;;;;9.30;6.05;;;;;;;-144.32;100.00;68061.97;10389311;28;20049;-79
2022/12/04 09:29:44;;;;;;;8.70;5.88;;;;;;;-144.32;100.00;68061.97;10392088;28;20145;-80
2022/12/04 09:34:46;;;;;;;9.07;5.88;;;;;;;-144.32;100.00;68061.97;10351466;28;20490;-81
2022/12/04 09:39:47;;;;;;;8.40;6.30;;;;;;;-144.32;100.00;68061.97;10350003;28;20121;-81
2022/12/04 09:44:57;;;;;;;8.35;5.45;;;;;;;-144.32;100.00;68061.97;10347628;28;20449;-81
2022/12/04 09:50:04;;;;;;;9.48;6.35;;;;;;;-144.32;100.00;68061.97;10347459;28;20056;-82
2022/12/04 09:55:13;;;;;;;10.10;7.07;;;;;;;-144.32;100.00;68061.97;10357284;28;20076;-81
2022/12/04 10:00:17;;;;;;;8.43;6.43;;;;;;;-144.32;100.00;68061.97;10351005;28;20047;-81
2022/12/04 10:05:38;;;;;;;8.32;5.55;;;;;;;-144.32;100.00;68061.97;10364060;28;20045;-79
2022/12/04 10:10:41;;;;;;;9.02;6.57;;;;;;;-144.32;100.00;68061.97;10401613;28;20043;-78
2022/12/04 10:16:05;;;;;;;9.27;6.95;;;;;;;-144.32;100.00;68061.97;10398779;28;20181;-76
2022/12/04 10:21:27;;;;;;;10.52;6.85;;;;;;;-144.32;100.00;68061.97;10408057;28;20057;-78
2022/12/04 10:26:34;;;;;;;9.00;6.20;;;;;;;-144.32;100.00;68061.97;10405162;28;20041;-80
2022/12/04 10:31:38;;;;;;;7.72;6.10;;;;;;;-144.32;100.00;68061.97;10396879;28;20104;-79
2022/12/04 10:36:45;;;;;;;9.38;6.03;;;;;;;-144.32;100.00;68061.97;10353864;28;20045;-79
2022/12/04 10:42:11;;;;;;;7.47;5.43;;;;;;;-144.32;100.00;68061.97;10378634;28;20046;-81
2022/12/04 10:47:12;;;;;;;7.53;5.78;;;;;;;-144.32;100.00;68061.97;10367066;28;20054;-81
2022/12/04 10:52:17;;;;;;;8.25;6.07;;;;;;;-144.32;100.00;68061.97;10383691;28;20049;-80
2022/12/04 10:57:18;;;;;;;8.02;6.15;;;;;;;-144.32;100.00;68061.97;10355538;28;20117;-80
2022/12/04 11:02:24;;;;;;;8.35;5.90;;;;;;;-144.32;100.00;68061.97;10351053;28;20168;-83
2022/12/04 11:07:33;;;;;;;8.73;5.72;;;;;;;-144.32;100.00;68061.97;10352297;28;20060;-82
2022/12/04 11:12:35;;;;;;;8.60;5.60;;;;;;;-144.32;100.00;68061.97;10356739;28;20045;-80
2022/12/04 11:17:35;;;;;;;7.90;5.53;;;;;;;-144.32;100.00;68061.97;10357018;28;20038;-81
2022/12/04 11:22:49;;;;;;;9.23;6.30;;;;;;;-144.32;100.00;68061.97;10356732;28;20046;-82
2022/12/04 11:27:53;;;;;;;9.07;6.10;;;;;;;-144.32;100.00;68061.97;10336927;28;20066;-80
2022/12/04 11:32:55;;;;;;;8.40;6.00;;;;;;;-144.32;100.00;68061.97;10357984;28;20133;-80
2022/12/04 11:38:01;;;;;;;8.27;5.57;;;;;;;-144.32;100.00;68061.97;10362895;28;20772;-82
2022/12/04 11:43:13;;;;;;;6.97;5.32;;;;;;;-144.32;100.00;68061.97;10381671;28;20041;-82
2022/12/04 11:48:17;;;;;;;8.23;5.38;;;;;;;-144.32;100.00;68061.97;10338297;28;20156;-80
2022/12/04 11:53:39;;;;;;;8.48;5.60;;;;;;;-144.32;100.00;68061.97;10354655;28;20068;-81
2022/12/04 11:58:56;;;;;;;7.40;5.47;;;;;;;-144.32;100.00;68061.97;10376168;28;20038;-81
2022/12/04 12:04:12;;;;;;;8.75;5.93;;;;;;;-144.32;100.00;68061.97;10360358;28;20046;-81
2022/12/04 12:09:34;;;;;;;7.80;5.72;;;;;;;-144.32;100.00;68061.97;10351311;28;20046;-82
2022/12/04 12:15:10;;;;;;;10.45;5.85;;;;;;;-144.32;100.00;68061.97;10351771;28;20038;-81
2022/12/04 12:20:24;;;;;;;7.72;5.60;;;;;;;-144.32;100.00;68061.97;10358431;28;20056;-80
2022/12/04 12:25:52;;;;;;;8.32;6.20;;;;;;;-144.32;100.00;68061.97;10393618;28;20046;-82
2022/12/04 12:31:02;;;;;;;7.85;5.75;;;;;;;-144.32;100.00;68061.97;10366894;28;20105;-81
2022/12/04 12:36:08;;;;;;;8.40;5.88;;;;;;;-144.32;100.00;68061.97;10349854;28;20405;-83
2022/12/04 12:41:15;;;;;;;8.38;5.85;;;;;;;-144.32;100.00;68061.97;10358378;28;20565;-80
2022/12/04 12:46:40;;;;;;;8.38;5.90;;;;;;;-144.32;100.00;68061.97;10340662;28;20050;-80
2022/12/04 12:51:49;;;;;;;7.25;5.88;;;;;;;-144.32;100.00;68061.97;10330949;28;20053;-80
2022/12/04 12:56:54;;;;;;;9.82;6.43;;;;;;;-144.32;100.00;68061.97;10332106;28;20085;-78
2022/12/04 13:02:11;;;;;;;7.65;5.45;;;;;;;-144.32;100.00;68061.97;10331182;28;20149;-80
2022/12/04 13:07:51;;;;;;;8.77;6.57;;;;;;;-144.32;100.00;68061.97;10343079;28;20105;-80
2022/12/04 13:13:32;;;;;;;10.52;7.25;;;;;;;-144.32;100.00;68061.97;10345360;28;20049;-82
2022/12/04 13:18:50;;;;;;;9.80;6.50;;;;;;;-144.32;100.00;68061.97;10353721;28;20058;-82
2022/12/04 13:24:21;;;;;;;8.45;6.43;;;;;;;-144.32;100.00;68061.97;10338009;28;20486;-81
2022/12/04 13:30:02;;;;;;;9.90;6.50;;;;;;;-144.32;100.00;68061.97;10340093;28;20049;-80
2022/12/04 13:35:12;;;;;;;8.70;6.00;;;;;;;-144.32;100.00;68061.97;10386432;28;20066;-79
2022/12/04 13:40:34;;;;;;;9.20;6.82;;;;;;;-144.32;100.00;68061.97;10394229;28;20106;-79
2022/12/04 13:45:35;;;;;;;8.60;6.45;;;;;;;-144.32;100.00;68061.97;10403518;28;20050;-82
2022/12/04 13:50:38;;;;;;;10.82;7.47;;;;;;;-144.32;100.00;68061.97;10403192;28;20057;-80
2022/12/04 13:55:40;;;;;;;9.50;6.82;;;;;;;-144.32;100.00;68061.97;10403288;28;20050;-79
2022/12/04 14:00:42;;;;;;;12.57;8.18;;;;;;;-144.32;100.00;68061.97;10380958;28;20030;-79
2022/12/04 14:05:47;;;;;;;10.90;7.57;;;;;;;-144.32;100.00;68061.97;10364978;28;20050;-81
2022/12/04 14:11:04;;;;;;;9.98;6.72;;;;;;;-144.32;100.00;68061.97;10378902;28;20085;-82
2022/12/04 14:16:16;;;;;;;15.73;11.02;;;;;;;-144.32;100.00;68061.97;10367362;28;20051;-82
2022/12/04 14:21:17;;;;;;;10.00;7.22;;;;;;;-144.32;100.00;68061.97;10349661;28;20074;-81
2022/12/04 14:26:20;;;;;;;9.85;7.00;;;;;;;-144.32;100.00;68061.97;10353551;28;20101;-81
2022/12/04 14:31:35;;;;;;;11.68;6.90;;;;;;;-144.32;100.00;68061.97;10354085;28;20789;-80
2022/12/04 14:36:42;;;;;;;12.55;8.07;;;;;;;-144.32;100.00;68061.97;10360081;28;20046;-81
2022/12/04 14:41:42;;;;;;;11.30;7.32;;;;;;;-144.32;100.00;68061.97;10349268;28;20077;-81
2022/12/04 14:46:48;;;;;;;12.20;7.85;;;;;;;-144.32;100.00;68061.97;10336658;28;20513;-80
2022/12/04 14:52:03;;;;;;;14.35;8.20;;;;;;;-144.32;100.00;68061.97;10328901;28;20042;-83
2022/12/04 14:57:20;;;;;;;9.70;7.25;;;;;;;-144.32;100.00;68061.97;10359999;28;20092;-81
2022/12/04 15:02:40;;;;;;;12.00;7.75;;;;;;;-144.32;100.00;68061.97;10355716;28;20045;-81
2022/12/04 15:07:48;;;;;;;11.52;8.25;;;;;;;-144.32;100.00;68061.97;10345731;28;20058;-82
2022/12/04 15:12:52;;;;;;;11.23;7.88;;;;;;;-144.32;100.00;68061.97;10359338;28;20033;-83
2022/12/04 15:17:56;;;;;;;12.57;8.13;;;;;;;-144.32;100.00;68061.97;10368719;28;20478;-83
2022/12/04 15:22:57;;;;;;;;;;;;;;;-144.32;100.00;68061.97;10367294;28;20045;-79
2022/12/04 15:28:05;;;;;;;11.82;8.10;;;;;;;-144.32;100.00;68061.97;10356941;28;19930;-81
2022/12/04 15:33:10;;;;;;;12.95;8.18;;;;;;;-144.32;100.00;68061.97;10374910;28;20094;-81
2022/12/04 15:38:16;;;;;;;11.27;8.18;;;;;;;-144.32;100.00;68061.97;10397819;28;20062;-83
2022/12/04 15:43:26;;;;;;;13.25;8.30;;;;;;;-144.32;100.00;68061.97;10357256;28;20491;-82
2022/12/04 15:48:30;;;;;;;11.77;8.20;;;;;;;-144.32;100.00;68061.97;10360017;28;20042;-83
2022/12/04 15:53:44;;;;;;;16.52;9.90;;;;;;;-144.32;100.00;68061.97;10367034;28;20069;-81
2022/12/04 15:59:01;;;;;;;14.80;9.43;;;;;;;-144.32;100.00;68061.97;10363803;28;20054;-83
2022/12/04 16:04:01;;;;;;;14.35;9.07;;;;;;;-144.32;100.00;68061.97;10358338;28;20050;-83
2022/12/04 16:09:25;;;;;;;12.85;8.38;;;;;;;-144.32;100.00;68061.97;10352016;28;20054;-80
2022/12/04 16:14:27;;;;;;;14.38;9.30;;;;;;;-144.32;100.00;68061.97;10359147;28;20047;-81
2022/12/04 16:19:33;;;;;;;13.75;9.20;;;;;;;-144.32;100.00;68061.97;10356482;28;20040;-83
2022/12/04 16:24:36;;;;;;;21.42;11.82;;;;;;;-144.32;100.00;68061.97;10362397;28;20128;-81
2022/12/04 16:29:37;;;;;;;14.40;9.80;;;;;;;-144.32;100.00;68061.97;10350192;28;20049;-81
2022/12/04 16:34:38;;;;;;;14.00;9.65;;;;;;;-144.32;100.00;68061.97;10333386;28;20074;-82
2022/12/04 16:39:39;;;;;;;12.57;9.20;;;;;;;-144.32;100.00;68061.97;10358627;28;20062;-82
2022/12/04 16:44:39;;;;;;;14.70;9.63;;;;;;;-144.32;100.00;68061.97;10385908;28;20037;-80
2022/12/04 16:49:49;;;;;;;15.07;10.38;;;;;;;-144.32;100.00;68061.97;10409242;28;20030;-82
2022/12/04 16:54:49;;;;;;;15.32;9.43;;;;;;;-144.32;100.00;68061.97;10405301;28;20026;-83
2022/12/04 16:59:50;;;;;;;13.63;9.30;;;;;;;-144.32;100.00;68061.97;10357152;28;20070;-85
2022/12/04 17:04:52;;;;;;;14.82;10.23;;;;;;;-144.32;100.00;68061.97;10371951;28;20046;-86
2022/12/04 17:09:56;;;;;;;16.40;10.07;;;;;;;-144.32;100.00;68061.97;10362214;28;20045;-84
2022/12/04 17:14:58;;;;;;;15.45;10.15;;;;;;;-144.32;100.00;68061.97;10372770;28;20116;-85
2022/12/04 17:20:00;;;;;;;15.73;10.07;;;;;;;-144.32;100.00;68061.97;10367942;28;20054;-84
2022/12/04 17:25:00;;;;;;;22.70;13.25;;;;;;;-144.32;100.00;68061.97;10366294;28;20057;-83
2022/12/04 17:30:02;;;;;;;16.63;9.98;;;;;;;-144.32;100.00;68061.97;10383385;28;20053;-81
2022/12/04 17:35:06;;;;;;;16.00;10.00;;;;;;;-144.32;100.00;68061.97;10386062;28;20089;-81
2022/12/04 17:40:11;;;;;;;14.10;8.93;;;;;;;-144.32;100.00;68061.97;10405128;28;20117;-82
2022/12/04 17:45:13;;;;;;;16.05;10.02;;;;;;;-144.32;100.00;68061.97;10407248;28;20033;-79
2022/12/04 17:50:15;;;;;;;14.65;9.90;;;;;;;-144.32;100.00;68061.97;10390153;28;20038;-83
2022/12/04 17:55:18;;;;;;;18.08;10.63;;;;;;;-144.32;100.00;68061.97;10406765;28;20047;-78
2022/12/04 18:00:22;;;;;;;15.98;10.10;;;;;;;-144.32;100.00;68061.97;10410575;28;20046;-80
2022/12/04 18:05:22;;;;;;;17.83;10.82;;;;;;;-144.32;100.00;68061.97;10396723;28;20125;-81
2022/12/04 18:10:27;;;;;;;18.25;10.43;;;;;;;-144.32;100.00;68061.97;10397212;28;20022;-80
2022/12/04 18:15:28;;;;;;;16.63;10.48;;;;;;;-144.32;100.00;68061.97;10413024;28;20080;-79
2022/12/04 18:20:28;;;;;;;16.50;9.90;;;;;;;-144.32;100.00;68061.97;10356087;28;20076;-81
2022/12/04 18:25:29;;;;;;;15.40;10.73;;;;;;;-144.32;100.00;68061.97;10364765;28;20039;-81
2022/12/04 18:30:29;;;;;;;18.58;11.15;;;;;;;-144.32;100.00;68061.97;10354836;28;20038;-81
2022/12/04 18:35:32;;;;;;;21.50;13.57;;;;;;;-144.32;100.00;68061.97;10359160;28;20049;-82
2022/12/04 18:40:35;;;;;;;20.33;12.07;;;;;;;-144.32;100.00;68061.97;10360299;28;20048;-80
2022/12/04 18:45:35;;;;;;;;;;;;;;;-144.32;100.00;68061.97;10382956;28;20156;-84
2022/12/04 18:50:37;;;;;;;22.65;14.07;;;;;;;-144.32;100.00;68061.97;10381042;28;20265;-83
2022/12/04 18:55:38;;;;;;;25.30;14.27;;;;;;;-144.32;100.00;68061.97;10350385;28;20148;-82
2022/12/04 19:00:39;;;;;;;24.33;14.18;;;;;;;-144.32;100.00;68061.97;10352803;28;20489;-83
2022/12/04 19:05:48;;;;;;;23.88;14.65;;;;;;;-144.32;100.00;68061.97;10346004;28;20050;-78
2022/12/04 19:10:48;;;;;;;22.35;13.95;;;;;;;-144.32;100.00;68061.97;10351408;28;20627;-79
2022/12/04 19:15:49;;;;;;;25.83;14.50;;;;;;;-144.32;100.00;68061.97;10352492;28;20053;-80
2022/12/04 19:20:51;;;;;;;26.70;15.45;;;;;;;-144.32;100.00;68061.97;10351851;28;20441;-79
2022/12/04 19:25:59;;;;;;;24.10;14.40;;;;;;;-144.32;100.00;68061.97;10350874;28;20833;-79
2022/12/04 19:31:00;;;;;;;24.70;14.45;;;;;;;-144.32;100.00;68061.97;10349724;28;20049;-78
2022/12/04 19:36:03;;;;;;;26.30;16.50;;;;;;;-144.32;100.00;68061.97;10318744;28;20046;-81
2022/12/04 19:41:10;;;;;;;;;;;;;;;-144.32;100.00;68061.97;10347201;28;20042;-81
2022/12/04 19:46:13;;;;;;;28.13;16.60;;;;;;;-144.32;100.00;68061.97;10354882;28;19933;-80
2022/12/04 19:51:17;;;;;;;28.67;16.20;;;;;;;-144.32;100.00;68061.97;10357638;28;20406;-81
2022/12/04 19:56:21;;;;;;;26.55;15.23;;;;;;;-144.32;100.00;68061.97;10361639;28;20221;-78
2022/12/04 20:01:25;;;;;;;23.15;14.88;;;;;;;-144.32;100.00;68061.97;10387992;28;20042;-80
2022/12/04 20:06:28;;;;;;;25.23;14.60;;;;;;;-144.32;100.00;68061.97;10387191;28;20050;-79
2022/12/04 20:11:31;;;;;;;30.50;16.95;;;;;;;-144.32;100.00;68061.97;10346131;28;20042;-81
2022/12/04 20:16:36;;;;;;;29.13;17.97;;;;;;;-144.32;100.00;68061.97;10346198;28;20791;-81
2022/12/04 20:21:38;;;;;;;31.13;17.75;;;;;;;-144.32;100.00;68061.97;10322189;28;20038;-78
2022/12/04 20:26:42;;;;;;;30.95;18.30;;;;;;;-144.32;100.00;68061.97;10356413;28;20046;-79
2022/12/04 20:31:45;;;;;;;29.70;17.10;;;;;;;-144.32;100.00;68061.97;10353678;28;20413;-82
2022/12/04 20:36:50;;;;;;;32.37;18.17;;;;;;;9.60;100.00;76911.81;10358037;28;20133;-81
2022/12/04 20:41:55;;;;;;;32.17;18.00;;;;;;;-144.32;100.00;68061.97;10351112;28;20076;-81
2022/12/04 20:46:57;;;;;;;30.73;18.13;;;;;;;-144.32;100.00;68061.97;10354052;28;20112;-84
2022/12/04 20:51:58;;;;;;;29.98;16.10;;;;;;;-144.32;100.00;68061.97;10340189;28;20359;-84
2022/12/04 20:57:00;;;;;;;25.02;15.88;;;;;;;-144.32;100.00;68061.97;10358860;28;20100;-82
2022/12/04 21:02:02;;;;;;;29.67;16.33;;;;;;;-144.32;100.00;68061.97;10357551;28;20536;-83
2022/12/04 21:07:02;;;;;;;28.92;15.68;;;;;;;-144.32;100.00;68061.97;10357254;28;20047;-84
2022/12/04 21:15:59;;;;;;;23.85;14.18;;;;;;;-144.32;100.00;68061.97;10359845;28;20038;-80
2022/12/04 21:17:24;;;;;;;24.08;14.32;;;;;;;-144.32;100.00;68061.97;10346816;28;20049;-81
2022/12/04 21:22:24;;;;;;;27.67;14.82;;;;;;;-144.32;100.00;68061.97;10396035;28;20094;-77
2022/12/04 21:27:25;;;;;;;26.23;15.20;;;;;;;-144.32;100.00;68061.97;10392478;28;20538;-79
2022/12/04 21:32:25;;;;;;;27.83;14.93;;;;;;;-144.32;100.00;68061.97;10405126;28;20053;-80
2022/12/04 21:37:26;;;;;;;22.02;13.50;;;;;;;-144.32;100.00;68061.97;10453102;22;20044;-79
2022/12/04 21:42:30;;;;;;;38.10;19.05;;;;;;;-144.32;100.00;68061.97;10521172;28;20052;-78
2022/12/04 21:47:31;;;;;;;;;;;;;;;-144.32;100.00;68061.97;10523593;28;20102;-80
2022/12/04 21:52:31;;;;;;;28.83;16.67;;;;;;;-144.32;100.00;68061.97;10509897;28;19924;-85
2022/12/04 21:57:32;;;;;;;31.17;16.63;;;;;;;-144.32;100.00;68061.97;10503757;28;20033;-83
2022/12/04 22:02:34;;;;;;;25.20;15.52;;;;;;;-144.32;100.00;68061.97;10493663;28;20041;-81
2022/12/04 22:07:35;;;;;;;29.08;15.50;;;;;;;-144.32;100.00;68061.97;10486501;28;20052;-81
2022/12/04 22:12:36;;;;;;;27.25;16.30;;;;;;;-144.32;100.00;68061.97;10489147;28;20049;-81
2022/12/04 22:17:36;;;;;;;32.97;17.38;;;;;;;-144.32;100.00;68061.97;10504873;28;20052;-79
2022/12/04 22:22:37;;;;;;;28.13;14.93;;;;;;;-144.32;96.33;80446.78;10480521;28;20135;-82
2022/12/04 22:27:38;;;;;;;29.75;17.38;;;;;;;-144.32;96.33;76868.72;10463056;28;20477;-80
2022/12/04 22:32:39;;;;;;;30.88;18.60;;;;;;;9.60;96.33;98928.53;10468795;28;20079;-80
2022/12/04 22:37:40;;;;;;;33.65;18.55;;;;;;;9.60;96.33;98928.53;10474664;28;20460;-80
2022/12/04 22:42:41;;;;;;;40.05;20.35;;;;;;;9.60;96.33;98928.53;10475379;28;20091;-82
2022/12/04 22:47:42;;;;;;;33.58;19.25;;;;;;;-144.32;96.33;76868.72;10443259;28;20040;-80
2022/12/04 22:52:43;;;;;;;33.78;20.30;;;;;;;9.60;96.33;98928.53;10461645;28;20045;-83
2022/12/04 22:57:44;;;;;;;34.33;20.48;;;;;;;9.60;96.33;102246.19;10455266;28;20060;-81
2022/12/04 23:02:44;;;;;;;35.38;18.67;;;;;;;9.60;96.33;102246.19;10456278;28;20063;-79
2022/12/04 23:07:46;;;;;;;35.13;19.75;;;;;;;9.60;71.01;98928.53;10512662;28;20028;-78
2022/12/04 23:12:50;;;;;;;32.83;19.42;;;;;;;9.60;96.33;98928.53;10510291;28;20032;-78
2022/12/04 23:17:50;;;;;;;31.38;19.25;;;;;;;9.60;96.33;98928.53;10498227;28;20129;-80
2022/12/04 23:22:53;;;;;;;31.20;18.00;;;;;;;-144.31;96.33;98928.53;10472219;28;20510;-80
2022/12/04 23:27:55;;;;;;;30.40;17.25;;;;;;;9.60;96.33;98928.53;10459657;28;20124;-81
2022/12/04 23:32:56;;;;;;;30.00;18.48;;;;;;;9.60;96.33;98928.53;10458693;28;20565;-81
2022/12/04 23:37:57;;;;;;;27.50;17.33;;;;;;;9.60;96.33;98928.53;10425258;28;1142093;-81
2022/12/04 23:42:57;;;;;;;29.00;17.73;;;;;;;9.60;96.33;98928.53;10473078;28;20493;-80